Time;durP1;ratioP1;P1;durP2;ratioP2;P2;SDS_P1;SDS_P2;PMS_P1;PMS_P2;Temp;Humidity;BMP_temperature;BMP_pressure;BME280_temperature;BME280_humidity;BME280_pressure;Samples;Min_cycle;Max_cycle;Signal;HPM_P1;HPM_P2
2021/04/17 00:00:15;;;;;;;0.20;0.20;;;8.20;99.70;;;;;;4400223;32;20133;-71
2021/04/17 00:02:40;;;;;;;0.20;0.20;;;8.20;99.90;;;;;;4399380;32;20452;-71
2021/04/17 00:05:07;;;;;;;0.28;0.28;;;8.10;99.90;;;;;;4399317;32;20086;-72
2021/04/17 00:07:33;;;;;;;0.30;0.30;;;8.10;99.90;;;;;;4399606;32;20073;-71
2021/04/17 00:09:58;;;;;;;0.20;0.20;;;8.10;99.90;;;;;;4400601;32;20074;-71
2021/04/17 00:12:24;;;;;;;0.30;0.30;;;8.10;99.90;;;;;;4400487;32;20507;-71
2021/04/17 00:14:51;;;;;;;0.30;0.30;;;8.10;99.90;;;;;;4400514;32;20510;-71
2021/04/17 00:17:19;;;;;;;0.22;0.22;;;8.10;99.90;;;;;;4399440;32;20112;-71
2021/04/17 00:19:47;;;;;;;0.20;0.20;;;8.00;99.90;;;;;;4399688;32;20070;-71
2021/04/17 00:22:13;;;;;;;0.20;0.20;;;8.00;99.90;;;;;;4399746;32;20502;-71
2021/04/17 00:24:38;;;;;;;0.50;0.50;;;7.90;99.90;;;;;;4400405;32;20074;-71
2021/04/17 00:27:06;;;;;;;0.60;0.40;;;7.90;99.90;;;;;;4399415;32;20070;-71
2021/04/17 00:29:32;;;;;;;0.20;0.20;;;7.80;99.90;;;;;;4399457;32;20073;-71
2021/04/17 00:31:59;;;;;;;0.20;0.20;;;7.80;99.90;;;;;;4399359;32;20527;-71
2021/04/17 00:34:25;;;;;;;0.40;0.40;;;7.70;99.90;;;;;;4398616;32;20131;-71
2021/04/17 00:36:50;;;;;;;2.25;0.52;;;7.70;99.90;;;;;;4398856;32;20070;-71
2021/04/17 00:39:16;;;;;;;0.30;0.30;;;7.70;99.90;;;;;;4399223;32;20069;-72
2021/04/17 00:41:41;;;;;;;0.20;0.20;;;7.70;99.90;;;;;;4399308;32;20079;-72
2021/04/17 00:44:07;;;;;;;1.20;0.65;;;7.70;99.90;;;;;;4399046;32;20133;-72
2021/04/17 00:46:33;;;;;;;0.30;0.30;;;7.70;99.90;;;;;;4398728;32;20124;-72
2021/04/17 00:48:58;;;;;;;0.50;0.50;;;7.60;99.90;;;;;;4398607;32;20113;-72
2021/04/17 00:51:25;;;;;;;4.75;2.15;;;7.60;99.90;;;;;;4398922;32;20069;-73
2021/04/17 00:53:50;;;;;;;0.30;0.30;;;7.70;99.90;;;;;;4398651;32;20568;-71
2021/04/17 00:56:19;;;;;;;0.77;0.40;;;7.70;99.90;;;;;;4398773;32;20077;-71
2021/04/17 00:58:45;;;;;;;2.08;0.80;;;7.60;99.90;;;;;;4398227;32;20086;-71
2021/04/17 01:01:10;;;;;;;0.65;0.65;;;7.60;99.90;;;;;;4398664;32;20074;-71
2021/04/17 01:03:42;;;;;;;0.30;0.30;;;7.60;99.90;;;;;;4398946;32;20565;-71
2021/04/17 01:06:20;;;;;;;0.30;0.30;;;7.60;99.90;;;;;;4398298;32;20074;-71
2021/04/17 01:09:08;;;;;;;0.22;0.22;;;7.70;99.90;;;;;;4398918;32;20128;-71
2021/04/17 01:11:40;;;;;;;0.30;0.30;;;7.70;99.90;;;;;;4384252;32;20090;-71
2021/04/17 01:14:07;;;;;;;0.20;0.20;;;7.50;99.90;;;;;;4399194;32;20312;-71
2021/04/17 01:16:34;;;;;;;0.30;0.30;;;7.60;99.90;;;;;;4398445;32;20085;-71
2021/04/17 01:19:03;;;;;;;0.30;0.30;;;7.60;99.90;;;;;;4398633;32;20083;-71
2021/04/17 01:21:30;;;;;;;0.30;0.30;;;7.70;99.90;;;;;;4398336;32;20074;-72
2021/04/17 01:24:05;;;;;;;0.98;0.82;;;7.60;99.90;;;;;;4397701;32;20082;-71
2021/04/17 01:26:31;;;;;;;0.20;0.20;;;7.60;99.90;;;;;;4398973;32;20066;-71
2021/04/17 01:28:57;;;;;;;0.40;0.40;;;7.60;99.90;;;;;;4398804;32;20082;-71
2021/04/17 01:31:29;;;;;;;0.20;0.20;;;7.50;99.90;;;;;;4398942;32;20448;-72
2021/04/17 01:33:57;;;;;;;0.30;0.30;;;7.60;99.90;;;;;;4397928;32;20070;-72
2021/04/17 01:36:24;;;;;;;0.40;0.40;;;7.70;99.90;;;;;;4398424;32;20124;-72
2021/04/17 01:38:55;;;;;;;0.30;0.30;;;7.70;99.90;;;;;;4398483;32;20121;-72
2021/04/17 01:41:27;;;;;;;0.30;0.30;;;7.80;99.90;;;;;;4398624;32;20394;-72
2021/04/17 01:43:57;;;;;;;0.55;0.55;;;7.80;99.90;;;;;;4398192;32;20083;-72
2021/04/17 01:46:25;;;;;;;0.30;0.30;;;7.60;99.90;;;;;;4397941;32;20094;-72
2021/04/17 01:48:57;;;;;;;0.20;0.20;;;7.60;99.90;;;;;;4398618;32;20413;-72
2021/04/17 01:51:23;;;;;;;0.20;0.20;;;7.60;99.90;;;;;;4398418;32;20090;-72
2021/04/17 01:53:50;;;;;;;0.35;0.35;;;7.70;99.90;;;;;;4397472;32;20066;-72
2021/04/17 01:56:19;;;;;;;0.40;0.40;;;7.70;99.90;;;;;;4399216;32;20520;-71
2021/04/17 01:58:46;;;;;;;0.30;0.30;;;7.70;99.90;;;;;;4398474;32;20352;-71
2021/04/17 02:01:12;;;;;;;0.30;0.30;;;7.80;99.90;;;;;;4398009;32;20550;-71
2021/04/17 02:03:37;;;;;;;0.30;0.30;;;7.70;99.90;;;;;;4398683;32;20061;-71
2021/04/17 02:06:04;;;;;;;0.30;0.30;;;7.60;99.90;;;;;;4399954;32;20079;-71
2021/04/17 02:08:34;;;;;;;0.20;0.20;;;7.50;99.90;;;;;;4398578;32;20074;-71
2021/04/17 02:11:00;;;;;;;0.20;0.20;;;7.50;99.90;;;;;;4399493;32;20069;-71
2021/04/17 02:13:25;;;;;;;0.30;0.30;;;7.50;99.90;;;;;;4399749;32;20495;-73
2021/04/17 02:15:51;;;;;;;0.37;0.37;;;7.40;99.90;;;;;;4398133;32;20167;-71
2021/04/17 02:18:28;;;;;;;0.30;0.30;;;7.40;99.90;;;;;;4399349;32;20075;-72
2021/04/17 02:21:02;;;;;;;0.40;0.40;;;7.30;99.90;;;;;;4398333;32;20090;-72
2021/04/17 02:23:29;;;;;;;0.28;0.28;;;7.20;99.90;;;;;;4397292;32;20579;-72
2021/04/17 02:25:56;;;;;;;0.30;0.30;;;7.20;99.90;;;;;;4398046;32;20067;-72
2021/04/17 02:28:23;;;;;;;6.43;0.60;;;7.20;99.90;;;;;;4398567;32;20087;-72
2021/04/17 02:30:48;;;;;;;0.25;0.25;;;7.20;99.90;;;;;;4398458;32;20069;-71
2021/04/17 02:33:14;;;;;;;0.22;0.22;;;7.20;99.90;;;;;;4397716;32;20070;-71
2021/04/17 02:35:39;;;;;;;0.20;0.20;;;7.20;99.90;;;;;;4399268;32;20125;-71
2021/04/17 02:38:05;;;;;;;0.30;0.30;;;7.20;99.90;;;;;;4401522;32;20124;-73
2021/04/17 02:40:30;;;;;;;0.55;0.55;;;7.20;99.90;;;;;;4401943;32;20082;-72
2021/04/17 02:42:56;;;;;;;0.30;0.30;;;7.30;99.90;;;;;;4400974;32;20496;-72
2021/04/17 02:45:21;;;;;;;0.20;0.20;;;7.20;99.90;;;;;;4400499;32;20147;-72
2021/04/17 02:47:47;;;;;;;1.25;0.47;;;7.20;99.90;;;;;;4401016;32;20071;-72
2021/04/17 02:50:13;;;;;;;0.13;0.13;;;7.20;99.90;;;;;;4401732;32;20494;-72
2021/04/17 02:52:38;;;;;;;0.37;0.37;;;7.20;99.90;;;;;;4399903;32;20378;-72
2021/04/17 02:55:04;;;;;;;0.25;0.25;;;7.20;99.90;;;;;;4400244;32;20083;-72
2021/04/17 02:57:30;;;;;;;0.20;0.20;;;7.20;99.90;;;;;;4401585;32;20083;-72
2021/04/17 02:59:55;;;;;;;0.20;0.20;;;7.10;99.90;;;;;;4400214;32;20089;-72
2021/04/17 03:02:21;;;;;;;0.28;0.28;;;7.20;99.90;;;;;;4401199;32;20181;-72
2021/04/17 03:04:46;;;;;;;0.37;0.37;;;7.30;99.90;;;;;;4400951;32;20073;-72
2021/04/17 03:07:13;;;;;;;4.25;1.23;;;7.30;99.90;;;;;;4399806;32;20109;-72
2021/04/17 03:09:38;;;;;;;0.30;0.30;;;7.30;99.90;;;;;;4400781;32;20124;-72
2021/04/17 03:12:05;;;;;;;0.30;0.30;;;7.20;99.90;;;;;;4400334;32;20058;-72
2021/04/17 03:14:30;;;;;;;15.32;0.75;;;7.20;99.90;;;;;;4400573;32;20392;-72
2021/04/17 03:16:56;;;;;;;0.45;0.45;;;7.30;99.90;;;;;;4399820;32;20103;-72
2021/04/17 03:19:21;;;;;;;0.45;0.35;;;7.30;99.90;;;;;;4400557;32;20078;-72
2021/04/17 03:21:47;;;;;;;0.35;0.35;;;7.30;99.90;;;;;;4399530;32;20101;-72
2021/04/17 03:24:12;;;;;;;0.30;0.30;;;7.30;99.90;;;;;;4400163;32;20459;-72
2021/04/17 03:26:37;;;;;;;0.30;0.30;;;7.30;99.90;;;;;;4400305;32;20074;-72
2021/04/17 03:29:03;;;;;;;0.20;0.20;;;7.30;99.90;;;;;;4400493;32;20120;-72
2021/04/17 03:31:29;;;;;;;0.30;0.30;;;7.30;99.90;;;;;;4400039;32;20465;-72
2021/04/17 03:33:54;;;;;;;6.37;1.15;;;7.30;99.90;;;;;;4400617;32;20066;-72
2021/04/17 03:36:20;;;;;;;0.85;0.50;;;7.30;99.90;;;;;;4399108;32;20405;-72
2021/04/17 03:38:45;;;;;;;0.30;0.30;;;7.40;99.90;;;;;;4400094;32;20073;-72
2021/04/17 03:41:11;;;;;;;0.28;0.28;;;7.40;99.90;;;;;;4399780;32;20428;-72
2021/04/17 03:43:36;;;;;;;0.30;0.30;;;7.50;99.90;;;;;;4400449;32;20065;-72
2021/04/17 03:46:03;;;;;;;0.25;0.25;;;7.40;99.90;;;;;;4399600;32;20066;-72
2021/04/17 03:48:28;;;;;;;0.40;0.40;;;7.50;99.90;;;;;;4399248;32;20078;-72
2021/04/17 03:50:54;;;;;;;2.67;1.27;;;7.40;99.90;;;;;;4400570;32;20062;-72
2021/04/17 03:53:19;;;;;;;0.40;0.40;;;7.50;99.90;;;;;;4399009;32;20166;-72
2021/04/17 03:55:45;;;;;;;0.25;0.25;;;7.50;99.90;;;;;;4399608;32;20073;-72
2021/04/17 03:58:10;;;;;;;0.30;0.30;;;7.50;99.90;;;;;;4400051;32;20066;-72
2021/04/17 04:00:36;;;;;;;0.22;0.22;;;7.40;99.90;;;;;;4400010;32;20066;-72
2021/04/17 04:03:01;;;;;;;0.30;0.30;;;7.40;99.90;;;;;;4399815;32;20082;-72
2021/04/17 04:05:27;;;;;;;0.30;0.30;;;7.40;99.90;;;;;;4400820;32;20132;-72
2021/04/17 04:07:52;;;;;;;0.25;0.25;;;7.30;99.90;;;;;;4399831;32;20066;-72
2021/04/17 04:10:18;;;;;;;0.20;0.20;;;7.40;99.90;;;;;;4397161;32;20083;-72
2021/04/17 04:12:44;;;;;;;3.20;0.80;;;7.30;99.90;;;;;;4401176;32;20075;-72
2021/04/17 04:15:12;;;;;;;0.30;0.30;;;7.40;99.90;;;;;;4400062;32;20113;-72
2021/04/17 04:17:37;;;;;;;0.20;0.20;;;7.40;99.90;;;;;;4399999;32;20065;-72
2021/04/17 04:20:05;;;;;;;0.20;0.20;;;7.40;99.90;;;;;;4399431;32;20070;-72
2021/04/17 04:22:32;;;;;;;0.30;0.30;;;7.40;99.90;;;;;;4398614;32;20114;-72
2021/04/17 04:24:58;;;;;;;0.40;0.40;;;7.40;99.90;;;;;;4399414;32;20074;-72
2021/04/17 04:27:23;;;;;;;0.35;0.35;;;7.40;99.90;;;;;;4400479;32;20058;-72
2021/04/17 04:29:49;;;;;;;2.72;0.65;;;7.30;99.90;;;;;;4400891;32;20121;-72
2021/04/17 04:32:14;;;;;;;0.55;0.55;;;7.30;99.90;;;;;;4399819;32;20162;-72
2021/04/17 04:34:40;;;;;;;0.52;0.52;;;7.30;99.90;;;;;;4398836;32;20405;-72
2021/04/17 04:37:05;;;;;;;0.40;0.40;;;7.40;99.90;;;;;;4399110;32;20070;-72
2021/04/17 04:39:31;;;;;;;0.28;0.28;;;7.50;99.90;;;;;;4399391;32;20134;-72
2021/04/17 04:41:56;;;;;;;0.43;0.43;;;7.50;99.90;;;;;;4399099;32;20087;-72
2021/04/17 04:44:22;;;;;;;0.20;0.20;;;7.50;99.90;;;;;;4399028;32;20062;-72
2021/04/17 04:46:47;;;;;;;0.50;0.50;;;7.40;99.90;;;;;;4399970;32;20073;-72
2021/04/17 04:49:14;;;;;;;0.40;0.40;;;7.30;99.90;;;;;;4399637;32;20112;-72
2021/04/17 04:51:39;;;;;;;0.30;0.30;;;7.30;99.90;;;;;;4399275;32;20101;-72
2021/04/17 04:54:05;;;;;;;0.20;0.20;;;7.40;99.90;;;;;;4400362;32;20066;-72
2021/04/17 04:56:31;;;;;;;0.20;0.20;;;7.50;99.90;;;;;;4400238;32;20086;-72
2021/04/17 04:58:56;;;;;;;0.22;0.22;;;7.50;99.90;;;;;;4400180;32;20065;-72
2021/04/17 05:01:21;;;;;;;0.40;0.40;;;7.60;99.90;;;;;;4399154;32;20126;-72
2021/04/17 05:03:47;;;;;;;0.30;0.30;;;7.60;99.90;;;;;;4399206;32;20078;-72
2021/04/17 05:06:13;;;;;;;0.20;0.20;;;7.60;99.90;;;;;;4400093;32;20452;-72
2021/04/17 05:08:38;;;;;;;0.35;0.35;;;7.60;99.90;;;;;;4398349;32;20070;-72
2021/04/17 05:11:04;;;;;;;0.20;0.20;;;7.60;99.90;;;;;;4399881;32;20070;-72
2021/04/17 05:13:29;;;;;;;1.02;0.85;;;7.60;99.90;;;;;;4399397;32;20125;-72
2021/04/17 05:15:55;;;;;;;0.25;0.25;;;7.60;99.90;;;;;;4399806;32;20077;-72
2021/04/17 05:18:20;;;;;;;0.60;0.50;;;7.70;99.90;;;;;;4399811;32;20074;-72
2021/04/17 05:20:46;;;;;;;0.25;0.25;;;7.60;99.90;;;;;;4398697;32;20073;-72
2021/04/17 05:23:12;;;;;;;0.40;0.40;;;7.70;99.90;;;;;;4397744;32;20070;-72
2021/04/17 05:25:37;;;;;;;0.40;0.40;;;7.60;99.90;;;;;;4398751;32;20069;-72
2021/04/17 05:28:03;;;;;;;0.20;0.20;;;7.70;99.90;;;;;;4398942;32;20523;-72
2021/04/17 05:30:29;;;;;;;0.30;0.30;;;7.70;99.90;;;;;;4398883;32;20081;-72
2021/04/17 05:32:54;;;;;;;0.30;0.30;;;7.90;99.90;;;;;;4398490;32;20323;-72
2021/04/17 05:35:20;;;;;;;0.20;0.20;;;7.80;99.90;;;;;;4399917;32;20085;-72
2021/04/17 05:37:45;;;;;;;0.32;0.32;;;7.80;99.90;;;;;;4398021;32;20083;-72
2021/04/17 05:40:11;;;;;;;5.25;0.95;;;7.80;99.90;;;;;;4398981;32;20412;-72
2021/04/17 05:42:37;;;;;;;0.30;0.30;;;7.80;99.90;;;;;;4398571;32;20445;-72
2021/04/17 05:45:03;;;;;;;0.32;0.30;;;7.80;99.90;;;;;;4398557;32;20086;-72
2021/04/17 05:47:29;;;;;;;0.30;0.30;;;7.70;99.90;;;;;;4398586;32;20432;-72
2021/04/17 05:49:54;;;;;;;0.37;0.37;;;7.60;99.90;;;;;;4398088;32;20070;-72
2021/04/17 05:52:20;;;;;;;1.62;1.23;;;7.50;99.90;;;;;;4397729;32;20541;-72
2021/04/17 05:54:46;;;;;;;0.35;0.35;;;7.60;99.90;;;;;;4398336;32;20077;-72
2021/04/17 05:57:11;;;;;;;0.30;0.30;;;7.60;99.90;;;;;;4398017;32;20070;-72
2021/04/17 05:59:37;;;;;;;0.30;0.30;;;7.60;99.90;;;;;;4398461;32;20103;-72
2021/04/17 06:02:02;;;;;;;0.20;0.20;;;7.70;99.90;;;;;;4398354;32;20129;-72
2021/04/17 06:04:28;;;;;;;0.20;0.20;;;7.70;99.90;;;;;;4397316;32;20436;-72
2021/04/17 06:06:53;;;;;;;6.18;0.73;;;7.80;99.90;;;;;;4397967;32;20071;-72
2021/04/17 06:09:20;;;;;;;0.52;0.52;;;7.80;99.90;;;;;;4399464;32;20082;-72
2021/04/17 06:11:46;;;;;;;4.40;0.40;;;7.80;99.90;;;;;;4402978;32;20066;-72
2021/04/17 06:14:12;;;;;;;0.82;0.82;;;7.80;99.90;;;;;;4403128;32;20065;-72
2021/04/17 06:16:37;;;;;;;0.30;0.30;;;7.80;99.90;;;;;;4404201;32;20070;-72
2021/04/17 06:19:03;;;;;;;0.40;0.40;;;7.80;99.90;;;;;;4403257;32;20502;-72
2021/04/17 06:21:28;;;;;;;0.30;0.30;;;7.80;99.90;;;;;;4402812;32;20066;-72
2021/04/17 06:23:54;;;;;;;0.30;0.30;;;7.90;99.90;;;;;;4403901;32;20495;-72
2021/04/17 06:26:20;;;;;;;0.35;0.35;;;7.90;99.90;;;;;;4403786;32;20074;-72
2021/04/17 06:28:46;;;;;;;0.20;0.20;;;7.90;99.90;;;;;;4404118;32;20062;-72
2021/04/17 06:31:11;;;;;;;0.20;0.20;;;7.90;99.90;;;;;;4402875;32;20519;-72
2021/04/17 06:33:37;;;;;;;0.20;0.20;;;7.90;99.90;;;;;;4403353;32;20062;-72
2021/04/17 06:36:04;;;;;;;0.28;0.28;;;7.90;99.90;;;;;;4402995;32;20392;-72
2021/04/17 06:38:30;;;;;;;0.20;0.20;;;7.90;99.90;;;;;;4402883;32;20138;-72
2021/04/17 06:40:55;;;;;;;0.30;0.30;;;8.00;99.90;;;;;;4402815;32;20078;-72
2021/04/17 06:43:22;;;;;;;0.30;0.30;;;8.00;99.90;;;;;;4403036;32;20421;-72
2021/04/17 06:45:52;;;;;;;3.30;1.40;;;8.00;99.90;;;;;;4403980;32;20065;-72
2021/04/17 06:48:19;;;;;;;0.52;0.52;;;8.10;99.90;;;;;;4402811;32;20074;-72
2021/04/17 06:50:45;;;;;;;0.32;0.32;;;8.10;99.90;;;;;;4403358;32;20468;-72
2021/04/17 06:53:13;;;;;;;0.22;0.22;;;8.00;99.90;;;;;;4401472;32;20074;-72
2021/04/17 06:55:39;;;;;;;0.70;0.60;;;8.00;99.90;;;;;;4403098;32;20066;-72
2021/04/17 06:58:04;;;;;;;0.30;0.30;;;8.00;99.90;;;;;;4402412;32;20093;-72
2021/04/17 07:00:30;;;;;;;0.20;0.20;;;8.10;99.90;;;;;;4403183;32;20094;-72
2021/04/17 07:02:56;;;;;;;0.20;0.20;;;8.00;99.90;;;;;;4402835;32;20069;-72
2021/04/17 07:05:21;;;;;;;0.30;0.30;;;8.00;99.90;;;;;;4402618;32;20065;-72
2021/04/17 07:07:47;;;;;;;0.30;0.30;;;7.90;99.90;;;;;;4402508;32;20070;-72
2021/04/17 07:10:14;;;;;;;0.30;0.30;;;8.00;99.90;;;;;;4400558;32;20539;-72
2021/04/17 07:12:41;;;;;;;0.20;0.20;;;8.00;99.90;;;;;;4403002;32;20073;-72
2021/04/17 07:15:08;;;;;;;0.25;0.25;;;8.10;99.90;;;;;;4402876;32;20133;-72
2021/04/17 07:17:35;;;;;;;0.30;0.30;;;8.20;99.90;;;;;;4403073;32;20130;-72
2021/04/17 07:20:05;;;;;;;0.40;0.40;;;8.30;99.90;;;;;;4403004;32;20058;-72
2021/04/17 07:22:36;;;;;;;0.40;0.40;;;8.40;99.90;;;;;;4400185;32;20125;-72
2021/04/17 07:25:06;;;;;;;;;;;8.30;99.90;;;;;;4400283;32;20121;-72
2021/04/17 07:27:34;;;;;;;0.20;0.20;;;8.40;99.90;;;;;;4400304;32;19964;-72
2021/04/17 07:30:02;;;;;;;26.00;0.73;;;8.50;99.90;;;;;;4401118;32;20057;-72
2021/04/17 07:32:28;;;;;;;0.75;0.75;;;8.40;99.90;;;;;;4400325;32;20070;-72
2021/04/17 07:35:15;;;;;;;1.02;0.45;;;8.40;99.90;;;;;;4399731;32;20082;-72
2021/04/17 07:37:44;;;;;;;4.37;0.50;;;8.40;99.90;;;;;;4388688;32;20649;-72
2021/04/17 07:40:26;;;;;;;0.30;0.30;;;8.50;99.90;;;;;;4399794;32;20079;-72
2021/04/17 07:42:54;;;;;;;0.32;0.32;;;8.50;99.90;;;;;;4400173;32;20755;-72
2021/04/17 07:45:26;;;;;;;0.37;0.37;;;8.40;99.90;;;;;;4399853;32;20086;-72
2021/04/17 07:47:54;;;;;;;1.90;0.73;;;8.40;99.90;;;;;;4400481;32;20086;-72
2021/04/17 07:50:20;;;;;;;0.65;0.40;;;8.30;99.90;;;;;;4399692;32;20433;-72
2021/04/17 07:52:46;;;;;;;18.65;0.62;;;8.40;99.90;;;;;;4399315;32;20087;-72
2021/04/17 07:55:14;;;;;;;3.03;0.62;;;8.40;99.90;;;;;;4400201;32;20094;-72
2021/04/17 07:57:44;;;;;;;0.20;0.20;;;8.40;99.90;;;;;;4400269;32;20070;-72
2021/04/17 08:00:12;;;;;;;0.30;0.30;;;8.50;99.90;;;;;;4400450;32;20113;-72
2021/04/17 08:02:39;;;;;;;0.22;0.22;;;8.50;99.90;;;;;;4399254;32;20487;-72
2021/04/17 08:05:07;;;;;;;0.30;0.30;;;8.60;99.90;;;;;;4399289;32;20493;-72
2021/04/17 08:07:33;;;;;;;0.30;0.30;;;8.60;99.90;;;;;;4401065;32;20062;-72
2021/04/17 08:10:00;;;;;;;0.80;0.80;;;8.60;99.90;;;;;;4400648;32;20128;-72
2021/04/17 08:12:26;;;;;;;0.40;0.40;;;8.50;99.90;;;;;;4400018;32;20125;-72
2021/04/17 08:14:52;;;;;;;0.40;0.40;;;8.60;99.90;;;;;;4399515;32;20503;-72
2021/04/17 08:17:19;;;;;;;0.25;0.25;;;8.70;99.90;;;;;;4400526;32;20078;-72
2021/04/17 08:19:45;;;;;;;0.40;0.40;;;8.80;99.90;;;;;;4399394;32;20069;-72
2021/04/17 08:22:12;;;;;;;0.55;0.55;;;9.00;99.90;;;;;;4398539;32;20129;-72
2021/04/17 08:24:39;;;;;;;1.02;0.57;;;9.10;99.90;;;;;;4399179;32;20078;-72
2021/04/17 08:27:05;;;;;;;0.20;0.20;;;9.10;99.90;;;;;;4399583;32;20070;-72
2021/04/17 08:29:52;;;;;;;1.20;0.55;;;9.20;99.90;;;;;;4399400;32;20073;-72
2021/04/17 08:32:34;;;;;;;0.30;0.30;;;9.30;99.90;;;;;;4399703;32;20465;-72
2021/04/17 08:35:03;;;;;;;11.02;1.70;;;9.40;99.90;;;;;;4398905;32;20062;-72
2021/04/17 08:37:30;;;;;;;0.40;0.40;;;9.30;99.90;;;;;;4399966;32;20086;-72
2021/04/17 08:39:57;;;;;;;0.62;0.60;;;9.30;99.90;;;;;;4399629;32;20062;-72
2021/04/17 08:42:44;;;;;;;0.20;0.20;;;9.20;99.90;;;;;;4399504;32;20070;-72
2021/04/17 08:45:15;;;;;;;0.47;0.40;;;9.40;99.90;;;;;;4399760;32;20074;-72
2021/04/17 08:47:50;;;;;;;0.30;0.30;;;9.30;99.90;;;;;;4400225;32;20547;-72
2021/04/17 08:50:37;;;;;;;0.30;0.30;;;9.40;99.90;;;;;;4399287;32;20066;-72
2021/04/17 08:53:22;;;;;;;0.22;0.22;;;9.40;99.90;;;;;;4388534;32;20101;-72
2021/04/17 08:55:50;;;;;;;3.90;1.48;;;9.50;99.90;;;;;;4398907;32;20124;-72
2021/04/17 08:58:25;;;;;;;0.30;0.30;;;9.60;99.90;;;;;;4398705;32;20416;-72
2021/04/17 09:00:53;;;;;;;0.50;0.50;;;9.70;99.90;;;;;;4400006;32;20421;-72
2021/04/17 09:03:41;;;;;;;0.40;0.40;;;9.80;99.90;;;;;;4392249;32;20429;-73
2021/04/17 09:06:28;;;;;;;0.30;0.30;;;9.80;99.90;;;;;;4387929;32;20082;-73
2021/04/17 09:09:16;;;;;;;0.40;0.40;;;9.90;99.90;;;;;;4387483;32;20074;-73
2021/04/17 09:11:43;;;;;;;0.20;0.20;;;10.10;99.90;;;;;;4387908;32;20460;-73
2021/04/17 09:14:32;;;;;;;0.60;0.60;;;10.10;99.90;;;;;;4398642;32;20503;-73
2021/04/17 09:17:22;;;;;;;0.88;0.85;;;10.40;99.90;;;;;;4375373;32;20539;-73
2021/04/17 09:19:50;;;;;;;0.30;0.30;;;10.40;99.90;;;;;;4383867;32;20097;-73
2021/04/17 09:22:34;;;;;;;0.20;0.20;;;10.50;99.90;;;;;;4397923;32;20067;-72
2021/04/17 09:25:02;;;;;;;8.77;1.50;;;10.50;99.90;;;;;;4398711;32;20082;-73
2021/04/17 09:27:31;;;;;;;0.30;0.30;;;10.40;99.90;;;;;;4399116;32;20129;-72
2021/04/17 09:30:04;;;;;;;0.30;0.30;;;10.50;99.90;;;;;;4398715;32;20090;-72
2021/04/17 09:32:33;;;;;;;0.57;0.57;;;10.50;99.90;;;;;;4393002;32;20061;-73
2021/04/17 09:35:00;;;;;;;0.30;0.30;;;10.50;99.90;;;;;;4398288;32;20393;-73
2021/04/17 09:37:27;;;;;;;1.35;1.00;;;10.60;99.90;;;;;;4398569;32;20098;-73
2021/04/17 09:39:53;;;;;;;0.30;0.30;;;10.50;99.90;;;;;;4396433;32;73753;-72
2021/04/17 09:42:39;;;;;;;0.30;0.30;;;10.70;99.90;;;;;;4398575;32;20137;-72
2021/04/17 09:45:08;;;;;;;0.28;0.28;;;10.80;99.90;;;;;;4387060;32;20066;-73
2021/04/17 09:47:33;;;;;;;1.20;0.70;;;10.80;99.90;;;;;;4398943;32;20081;-73
2021/04/17 09:50:00;;;;;;;0.25;0.25;;;11.00;99.90;;;;;;4399079;32;20118;-72
2021/04/17 09:52:27;;;;;;;0.43;0.43;;;11.10;99.90;;;;;;4398219;32;20087;-72
2021/04/17 09:55:15;;;;;;;0.20;0.20;;;11.20;99.90;;;;;;4402182;32;20061;-72
2021/04/17 09:57:49;;;;;;;0.52;0.52;;;11.40;99.90;;;;;;4398504;32;20287;-72
2021/04/17 10:00:15;;;;;;;0.55;0.55;;;11.40;99.90;;;;;;4399497;32;20078;-72
2021/04/17 10:02:44;;;;;;;0.20;0.20;;;11.50;99.90;;;;;;4398463;32;20073;-72
2021/04/17 10:05:11;;;;;;;0.43;0.43;;;11.70;99.90;;;;;;4397889;32;20066;-72
2021/04/17 10:07:49;;;;;;;18.85;0.70;;;11.60;99.90;;;;;;4398353;32;20124;-72
2021/04/17 10:10:16;;;;;;;0.57;0.37;;;11.60;99.90;;;;;;4398394;32;20117;-72
2021/04/17 10:12:50;;;;;;;0.65;0.65;;;11.80;99.90;;;;;;4393158;32;20067;-72
2021/04/17 10:15:20;;;;;;;0.57;0.57;;;12.00;99.90;;;;;;4398438;32;20478;-72
2021/04/17 10:17:47;;;;;;;0.57;0.57;;;12.20;99.90;;;;;;4398560;32;20535;-72
2021/04/17 10:20:13;;;;;;;1.55;0.70;;;12.50;99.90;;;;;;4398722;32;20058;-72
2021/04/17 10:22:40;;;;;;;0.50;0.50;;;12.50;99.90;;;;;;4397149;32;20824;-72
2021/04/17 10:25:08;;;;;;;1.20;0.73;;;12.60;99.90;;;;;;4398512;32;20511;-72
2021/04/17 10:27:36;;;;;;;0.50;0.47;;;12.70;99.90;;;;;;4399632;32;20158;-72
2021/04/17 10:30:15;;;;;;;2.40;0.68;;;12.90;99.90;;;;;;4398161;32;20511;-72
2021/04/17 10:32:41;;;;;;;0.52;0.52;;;12.70;99.90;;;;;;4397895;32;20057;-72
2021/04/17 10:35:11;;;;;;;6.05;1.17;;;12.70;99.90;;;;;;4397426;32;20087;-72
2021/04/17 10:37:47;;;;;;;1.10;0.93;;;12.70;99.90;;;;;;4397690;32;20122;-72
2021/04/17 10:40:15;;;;;;;2.20;0.80;;;12.70;99.90;;;;;;4397740;32;20065;-72
2021/04/17 10:42:48;;;;;;;0.43;0.40;;;12.70;99.90;;;;;;4397915;32;20079;-72
2021/04/17 10:45:18;;;;;;;2.87;1.10;;;12.90;99.90;;;;;;4397466;32;20062;-72
2021/04/17 10:47:57;;;;;;;2.95;0.60;;;13.20;99.90;;;;;;4397894;32;20078;-72
2021/04/17 10:50:24;;;;;;;0.90;0.40;;;13.60;99.90;;;;;;4397602;32;20062;-72
2021/04/17 10:52:56;;;;;;;0.60;0.50;;;13.80;99.80;;;;;;4396683;32;20077;-72
2021/04/17 10:55:34;;;;;;;1.15;1.05;;;13.70;99.80;;;;;;4397930;32;20066;-72
2021/04/17 10:58:00;;;;;;;5.75;0.60;;;13.60;99.50;;;;;;4401199;32;20057;-73
2021/04/17 11:00:28;;;;;;;0.43;0.40;;;13.70;99.90;;;;;;4401627;32;20058;-73
2021/04/17 11:02:54;;;;;;;4.30;0.82;;;14.00;99.40;;;;;;4399972;32;20058;-73
2021/04/17 11:05:20;;;;;;;3.72;0.82;;;13.80;99.20;;;;;;4400103;32;20078;-73
2021/04/17 11:07:46;;;;;;;16.85;3.22;;;13.50;99.60;;;;;;4400217;32;20066;-73
2021/04/17 11:10:12;;;;;;;0.30;0.30;;;13.40;99.90;;;;;;4397844;32;20066;-73
2021/04/17 11:12:39;;;;;;;2.92;0.50;;;13.20;99.90;;;;;;4398711;32;20113;-73
2021/04/17 11:15:22;;;;;;;0.45;0.45;;;13.60;99.90;;;;;;4399561;32;20090;-73
2021/04/17 11:18:08;;;;;;;0.30;0.30;;;13.60;99.90;;;;;;4400549;32;20079;-73
2021/04/17 11:20:45;;;;;;;1.65;0.95;;;13.60;99.50;;;;;;4388988;32;20113;-73
2021/04/17 11:23:39;;;;;;;0.60;0.50;;;13.50;99.80;;;;;;4399388;32;20083;-73
2021/04/17 11:26:13;;;;;;;3.72;0.52;;;13.70;99.90;;;;;;4389778;32;20078;-73
2021/04/17 11:28:41;;;;;;;0.32;0.32;;;13.80;99.60;;;;;;4400583;32;20078;-73
2021/04/17 11:31:08;;;;;;;0.65;0.50;;;13.70;99.80;;;;;;4399720;32;20071;-73
2021/04/17 11:33:34;;;;;;;1.17;0.85;;;13.90;99.90;;;;;;4400462;32;20062;-72
2021/04/17 11:35:59;;;;;;;0.30;0.30;;;13.90;99.70;;;;;;4399860;32;20083;-72
2021/04/17 11:38:25;;;;;;;0.37;0.37;;;14.00;99.30;;;;;;4399442;32;20066;-72
2021/04/17 11:40:50;;;;;;;0.30;0.30;;;13.90;98.70;;;;;;4399468;32;20070;-72
2021/04/17 11:43:17;;;;;;;0.82;0.55;;;13.80;99.50;;;;;;4399874;32;20061;-72
2021/04/17 11:45:43;;;;;;;1.23;0.98;;;13.70;98.80;;;;;;4400089;32;20094;-72
2021/04/17 11:48:08;;;;;;;1.87;0.73;;;13.40;99.10;;;;;;4399690;32;20157;-72
2021/04/17 11:50:34;;;;;;;0.30;0.30;;;13.20;99.50;;;;;;4400193;32;20078;-73
2021/04/17 11:53:00;;;;;;;2.67;0.70;;;13.20;99.80;;;;;;4399362;32;20066;-73
2021/04/17 11:55:26;;;;;;;0.60;0.60;;;13.30;99.90;;;;;;4399420;32;20090;-71
2021/04/17 11:57:51;;;;;;;0.93;0.93;;;13.40;99.90;;;;;;4399361;32;20507;-72
2021/04/17 12:00:18;;;;;;;1.55;0.75;;;13.40;99.90;;;;;;4399740;32;20074;-71
2021/04/17 12:02:43;;;;;;;2.10;1.10;;;13.40;99.90;;;;;;4399758;32;20162;-72
2021/04/17 12:05:10;;;;;;;0.50;0.50;;;13.40;99.90;;;;;;4399097;32;20074;-72
2021/04/17 12:07:35;;;;;;;0.40;0.40;;;13.30;99.90;;;;;;4399121;32;20062;-71
2021/04/17 12:10:01;;;;;;;0.70;0.70;;;13.20;99.90;;;;;;4398756;32;20059;-71
2021/04/17 12:12:28;;;;;;;1.73;0.98;;;13.20;99.90;;;;;;4400268;32;20130;-72
2021/04/17 12:14:53;;;;;;;0.75;0.50;;;13.10;99.90;;;;;;4400025;32;20074;-72
2021/04/17 12:17:19;;;;;;;1.08;0.50;;;13.00;99.90;;;;;;4399604;32;20086;-72
2021/04/17 12:19:44;;;;;;;8.38;0.60;;;13.00;99.90;;;;;;4399639;32;20121;-72
2021/04/17 12:22:10;;;;;;;0.47;0.47;;;13.10;99.90;;;;;;4400128;32;20066;-72
2021/04/17 12:24:35;;;;;;;0.28;0.28;;;13.20;99.90;;;;;;4398134;32;20410;-72
2021/04/17 12:27:01;;;;;;;0.60;0.60;;;13.50;99.90;;;;;;4400273;32;20070;-73
2021/04/17 12:29:27;;;;;;;0.40;0.40;;;13.70;99.90;;;;;;4399955;32;20418;-73
2021/04/17 12:31:52;;;;;;;0.32;0.32;;;13.90;99.90;;;;;;4399455;32;20069;-73
2021/04/17 12:34:18;;;;;;;0.40;0.40;;;13.90;99.90;;;;;;4398958;32;20070;-72
2021/04/17 12:36:44;;;;;;;1.60;1.10;;;14.00;99.90;;;;;;4399283;32;20066;-72
2021/04/17 12:39:09;;;;;;;0.35;0.35;;;14.20;99.90;;;;;;4398828;32;20063;-72
2021/04/17 12:41:35;;;;;;;0.65;0.65;;;14.30;99.80;;;;;;4399552;32;20527;-72
2021/04/17 12:44:01;;;;;;;0.30;0.30;;;14.40;99.50;;;;;;4399094;32;20065;-72
2021/04/17 12:46:27;;;;;;;1.75;0.65;;;14.40;99.90;;;;;;4398629;32;20079;-72
2021/04/17 12:48:52;;;;;;;0.30;0.30;;;14.50;99.50;;;;;;4399321;32;20059;-72
2021/04/17 12:51:18;;;;;;;0.40;0.40;;;14.30;99.20;;;;;;4400133;32;20066;-72
2021/04/17 12:53:43;;;;;;;0.45;0.45;;;14.20;99.40;;;;;;4399301;32;20078;-72
2021/04/17 12:56:09;;;;;;;0.88;0.65;;;14.00;99.50;;;;;;4399048;32;20078;-72
2021/04/17 12:58:38;;;;;;;0.57;0.50;;;13.90;99.80;;;;;;4400058;32;20082;-72